Haigler, Nebraska
Current Conditions -  °F | °C
As of 10:15 PM on Saturday 25 Oct 2014 (Local Time) from K2V5 Reporting Station
Clear Clear  
Wind Chill: 52°   Ceiling: Unl
Heat Index: 52°   Visibility: 10mi
Dew Point: 37°   Wind: 3mph
Humidity: 57%   Direction: 60°ENE
Pressure: 29.95"   Gusts: NA
Location:  40.01°N, 101.94°W
Report Text: K2V5 260415Z AUTO 06003KT 10SM CLR 11/03 A2995 RMK AO2 T01110028
Loading
Personal Weather Stations






























Interactive Weather Map
Tropical Storm Tracking
New forecast layout! Learn more

10-Day Weather Forecast

Advertisements
Track Severe Weather on mobile